Terminal Aerodrome Forecast
Issued by NWS Albuquerque, NM

Home | Current Version | Previous Version | Text Only | Print | Product List | Glossary On
Versions: 1 2 3 4 5 6 7 8 9 10 11 12 13 14 15 16 17 18 19 20 21 22
740
FTUS45 KABQ 220539
TAFABQ
TAF
KABQ 220539Z 2206/2306 31010KT P6SM SCT050 OVC070
     FM220900 VRB04KT P6SM FEW060
     FM221800 31008KT P6SM SCT130
     FM222200 28008KT P6SM SCT050 BKN100
     FM230200 16005KT P6SM BKN050=

USA.gov is the U.S. government's official web portal to all federal, state and local government web resources and services.